Other Surface Observations
Issued by NWS Great Falls, MT

Home | Current Version | Previous Version | Text Only | Print | Product List | Glossary On
Versions: 1 2 3 4 5 6 7 8 9 10 11 12 13 14 15 16 17 18 19 20 21 22 23 24 25 26 27 28 29 30 31 32 33 34 35 36 37 38 39 40 41 42 43 44 45 46 47 48 49 50
000
SXUS55 KTFX 212129
OSOTFX
AREA AWOS OBSERVATIONS
NATIONAL WEATHER SERVICE GREAT FALLS MT
0329 PM MDT FRI JUL 21 2017

METAR KPWD 212130Z AUTO 30019G25KT 10SM 29/10 A2983 RMK PLENTYWOOD
METAR KPO1 212130Z AUTO 29017G23KT 9SM 32/03 A2984 RMK POPLAR
METAR K1S3 212130Z AUTO 24008KT 10SM 32/00 A2993 RMK FORSYTH
METAR KS71 212130Z AUTO 26012G21KT 10SM 29/M01 A2991 RMK CHINOOK
METAR K38S 212130Z AUTO 33009G15KT 10SM 27/M01 A3011 RMK DEER LODGE
METAR K3U3 212130Z AUTO 28013G21KT 10SM 27/M04 A3011 RMK ANACONDA
METAR K6S5 212130Z AUTO 29008KT 10SM 28/M01 A3008 RMK HAMILTON
METAR KS59 212130Z AUTO 18007KT 10SM 27/02 A3005 RMK LIBBY
METAR K88M 212130Z AUTO 10SM 26/03 A3004 RMK EUREKA



USA.gov is the U.S. government's official web portal to all federal, state and local government web resources and services.